createdAt,value
2023-01-17T00:02:13.546Z,72.80
2023-01-17T00:04:59.559Z,73.17
2023-01-17T00:07:45.665Z,71.20
2023-01-17T00:10:15.418Z,72.33
2023-01-17T00:12:49.656Z,70.53
2023-01-17T00:15:19.863Z,71.43
2023-01-17T00:17:48.663Z,73.10
2023-01-17T00:20:35.967Z,70.77
2023-01-17T00:23:24.537Z,70.03
2023-01-17T00:26:04.537Z,74.43
2023-01-17T00:28:35.547Z,71.10
2023-01-17T00:31:03.811Z,70.67
2023-01-17T00:33:30.976Z,69.93
2023-01-17T00:35:59.225Z,65.30
2023-01-17T00:38:28.554Z,64.27
2023-01-17T00:41:01.122Z,58.77
2023-01-17T00:43:48.595Z,58.30
2023-01-17T00:46:36.264Z,58.90
2023-01-17T00:49:22.540Z,59.77
2023-01-17T00:52:07.998Z,61.77
2023-01-17T00:54:54.394Z,62.10
2023-01-17T00:57:39.887Z,63.90
2023-01-17T01:00:26.779Z,66.53
2023-01-17T01:03:13.470Z,64.60
2023-01-17T01:05:58.937Z,67.60
2023-01-17T01:08:46.356Z,70.03
2023-01-17T01:11:33.900Z,71.23
2023-01-17T01:14:20.733Z,72.77
2023-01-17T01:17:06.386Z,73.30
2023-01-17T01:19:53.570Z,74.30
2023-01-17T01:22:38.982Z,75.67
2023-01-17T01:25:24.883Z,77.23
2023-01-17T01:28:10.471Z,77.37
2023-01-17T01:30:55.917Z,78.13
2023-01-17T01:33:22.955Z,78.70
2023-01-17T01:35:54.818Z,78.10
2023-01-17T01:38:24.812Z,78.00
2023-01-17T01:40:54.864Z,79.00
2023-01-17T01:43:42.015Z,80.10
2023-01-17T01:46:12.288Z,80.80
2023-01-17T01:48:44.595Z,80.50
2023-01-17T01:51:20.568Z,79.70
2023-01-17T01:53:53.031Z,80.53
2023-01-17T01:56:23.410Z,81.27
2023-01-17T01:58:53.955Z,81.20
2023-01-17T02:01:22.615Z,81.73
2023-01-17T02:03:51.313Z,82.70
2023-01-17T02:06:30.460Z,84.27
2023-01-17T02:09:03.099Z,83.70
2023-01-17T02:11:31.626Z,84.30
2023-01-17T02:13:59.799Z,85.53
2023-01-17T02:16:38.057Z,86.63
2023-01-17T02:19:25.069Z,86.20
2023-01-17T02:22:09.738Z,88.43
2023-01-17T02:25:16.302Z,89.50
2023-01-17T02:27:57.487Z,90.63
2023-01-17T02:30:34.563Z,85.97
2023-01-17T02:33:16.727Z,86.57
2023-01-17T02:35:55.518Z,89.00
2023-01-17T02:38:32.340Z,90.20
2023-01-17T02:41:05.265Z,92.37
2023-01-17T02:43:34.834Z,91.37
2023-01-17T02:46:04.433Z,91.13
2023-01-17T02:48:35.193Z,89.30
2023-01-17T02:51:29.687Z,91.00
2023-01-17T02:54:14.897Z,91.80
2023-01-17T02:56:53.424Z,89.10
2023-01-17T02:59:34.852Z,88.03
2023-01-17T03:02:13.258Z,88.30
2023-01-17T03:04:48.561Z,87.10
2023-01-17T03:07:20.827Z,87.07
2023-01-17T03:09:53.552Z,87.40
2023-01-17T03:12:22.177Z,88.07
2023-01-17T03:14:50.279Z,86.93
2023-01-17T03:17:19.748Z,86.67
2023-01-17T03:19:47.822Z,88.50
2023-01-17T03:22:15.904Z,89.20
2023-01-17T03:24:43.980Z,89.47
2023-01-17T03:27:12.058Z,89.77
2023-01-17T03:29:40.127Z,86.50
2023-01-17T03:32:08.309Z,86.53
2023-01-17T03:34:37.508Z,90.43
2023-01-17T03:37:05.537Z,91.20
2023-01-17T03:39:33.615Z,90.60
2023-01-17T03:42:01.695Z,89.90
2023-01-17T03:44:29.778Z,87.40
2023-01-17T03:46:57.936Z,86.13
2023-01-17T03:49:25.991Z,89.13
2023-01-17T03:51:55.450Z,88.17
2023-01-17T03:54:23.503Z,88.60
2023-01-17T03:56:51.563Z,92.50
2023-01-17T03:59:19.635Z,91.07
2023-01-17T04:01:47.828Z,90.40
2023-01-17T04:04:15.941Z,88.97
2023-01-17T04:06:44.096Z,91.57
2023-01-17T04:09:14.487Z,95.50
2023-01-17T04:11:42.544Z,93.13
2023-01-17T04:14:10.635Z,92.23
2023-01-17T04:16:39.718Z,92.37
2023-01-17T04:19:07.870Z,90.50
2023-01-17T04:21:35.978Z,92.70
2023-01-17T04:24:04.051Z,90.73
2023-01-17T04:26:33.506Z,93.90
2023-01-17T04:29:01.630Z,91.63
2023-01-17T04:31:29.766Z,91.93
2023-01-17T04:33:57.886Z,92.67
2023-01-17T04:36:26.032Z,88.97
2023-01-17T04:38:54.114Z,92.53
2023-01-17T04:41:22.164Z,95.00
2023-01-17T04:43:51.596Z,95.40
2023-01-17T04:46:19.658Z,97.63
2023-01-17T04:48:47.798Z,101.80
2023-01-17T04:51:15.968Z,98.33
2023-01-17T04:53:44.061Z,101.73
2023-01-17T04:56:12.155Z,96.47
2023-01-17T04:58:40.222Z,97.67
2023-01-17T05:01:10.274Z,90.97
2023-01-17T05:03:38.534Z,99.63
2023-01-17T05:06:06.873Z,96.77
2023-01-17T05:08:34.965Z,99.43
2023-01-17T05:11:03.114Z,101.63
2023-01-17T05:13:31.248Z,98.20
2023-01-17T05:15:59.754Z,98.80
2023-01-17T05:18:29.234Z,97.23
2023-01-17T05:21:02.769Z,99.00
2023-01-17T05:23:31.079Z,98.83
2023-01-17T05:25:59.190Z,96.80
2023-01-17T05:28:28.282Z,98.50
2023-01-17T05:30:56.352Z,94.40
2023-01-17T05:33:24.507Z,92.47
2023-01-17T05:35:53.981Z,89.30
2023-01-17T05:38:22.588Z,93.67
2023-01-17T05:40:51.005Z,93.00
2023-01-17T05:43:19.835Z,94.77
2023-01-17T05:45:50.228Z,95.70
2023-01-17T05:48:18.240Z,95.20
2023-01-17T05:50:46.402Z,95.83
2023-01-17T05:53:17.397Z,97.50
2023-01-17T05:55:45.810Z,96.83
2023-01-17T05:58:16.182Z,102.33
2023-01-17T06:00:44.552Z,101.73
2023-01-17T06:03:12.737Z,98.00
2023-01-17T06:05:40.995Z,94.13
2023-01-17T06:08:09.568Z,98.87
2023-01-17T06:10:38.998Z,92.30
2023-01-17T06:13:09.356Z,96.22
2023-01-17T06:15:38.332Z,90.70
2023-01-17T06:18:07.729Z,88.67
2023-01-17T06:20:36.305Z,93.63
2023-01-17T06:23:06.295Z,88.20
2023-01-17T06:25:39.532Z,87.93
2023-01-17T06:28:08.473Z,88.17
2023-01-17T06:30:37.028Z,90.20
2023-01-17T06:33:06.062Z,87.10
2023-01-17T06:35:34.101Z,92.45
2023-01-17T06:38:02.317Z,90.37
2023-01-17T06:40:31.183Z,90.93
2023-01-17T06:43:02.982Z,89.27
2023-01-17T06:45:31.172Z,94.90
2023-01-17T06:47:59.841Z,90.23
2023-01-17T06:50:28.252Z,91.00
2023-01-17T06:52:57.286Z,92.60
2023-01-17T06:55:28.744Z,88.70
2023-01-17T06:57:56.915Z,84.07
2023-01-17T07:00:26.652Z,77.27
2023-01-17T07:02:54.891Z,81.10
2023-01-17T07:05:23.492Z,82.43
2023-01-17T07:07:51.566Z,81.63
2023-01-17T07:10:19.739Z,79.80
2023-01-17T07:12:48.054Z,81.53
2023-01-17T07:15:16.317Z,78.67
2023-01-17T07:17:45.755Z,84.63
2023-01-17T07:20:14.066Z,87.00
2023-01-17T07:22:46.096Z,89.43
2023-01-17T07:25:14.312Z,90.80
2023-01-17T07:27:42.470Z,83.43
2023-01-17T07:30:12.042Z,85.77
2023-01-17T07:32:40.413Z,89.47
2023-01-17T07:35:10.501Z,89.63
2023-01-17T07:37:39.097Z,86.20
2023-01-17T07:40:08.133Z,92.83
2023-01-17T07:42:36.165Z,88.23
2023-01-17T07:45:04.542Z,89.13
2023-01-17T07:47:33.949Z,90.93
2023-01-17T07:50:02.844Z,90.73
2023-01-17T07:52:32.442Z,88.07
2023-01-17T07:55:00.612Z,88.80
2023-01-17T07:57:28.948Z,87.63
2023-01-17T07:59:57.056Z,90.40
2023-01-17T08:02:25.440Z,96.20
2023-01-17T08:04:53.528Z,96.00
2023-01-17T08:07:21.593Z,95.33
2023-01-17T08:09:50.985Z,95.37
2023-01-17T08:12:19.206Z,97.50
2023-01-17T08:14:47.232Z,93.80
2023-01-17T08:17:17.028Z,90.57
2023-01-17T08:19:45.172Z,94.30
2023-01-17T08:22:13.425Z,93.30
2023-01-17T08:24:41.927Z,95.53
2023-01-17T08:27:11.904Z,91.37
2023-01-17T08:29:42.796Z,93.73
2023-01-17T08:32:10.929Z,95.20
2023-01-17T08:34:38.842Z,92.67
2023-01-17T08:37:06.981Z,102.40
2023-01-17T08:39:35.075Z,101.50
2023-01-17T08:42:03.338Z,104.60
2023-01-17T08:44:32.784Z,102.13
2023-01-17T08:47:00.869Z,99.50
2023-01-17T08:49:28.991Z,100.87
2023-01-17T08:51:57.032Z,105.30
2023-01-17T08:54:25.113Z,98.63
2023-01-17T08:56:55.626Z,105.27
2023-01-17T08:59:23.880Z,102.33
2023-01-17T09:01:58.184Z,100.80
2023-01-17T09:04:26.438Z,99.67
2023-01-17T09:06:54.544Z,96.00
2023-01-17T09:09:22.680Z,101.13
2023-01-17T09:11:50.701Z,104.47
2023-01-17T09:14:19.432Z,97.20
2023-01-17T09:16:48.559Z,95.97
2023-01-17T09:19:19.109Z,100.70
2023-01-17T09:21:47.215Z,99.90
2023-01-17T09:24:15.672Z,99.63
2023-01-17T09:26:43.839Z,98.03
2023-01-17T09:29:13.641Z,95.20
2023-01-17T09:31:42.223Z,101.80
2023-01-17T09:34:10.438Z,97.30
2023-01-17T09:36:40.081Z,100.53
2023-01-17T09:39:09.360Z,95.80
2023-01-17T09:41:45.227Z,96.10
2023-01-17T09:44:26.976Z,101.50
2023-01-17T09:46:59.384Z,97.07
2023-01-17T09:49:39.127Z,97.90
2023-01-17T09:52:12.484Z,96.00
2023-01-17T09:54:42.848Z,94.47
2023-01-17T09:57:32.998Z,95.00
2023-01-17T10:00:12.835Z,98.10
2023-01-17T10:03:10.880Z,95.90
2023-01-17T10:05:54.639Z,97.63
2023-01-17T10:08:41.782Z,101.73
2023-01-17T10:11:27.404Z,101.20
2023-01-17T10:14:04.361Z,99.57
2023-01-17T10:16:45.075Z,98.83
2023-01-17T10:19:26.670Z,102.20
2023-01-17T10:22:24.460Z,98.80
2023-01-17T10:25:17.233Z,101.97
2023-01-17T10:27:51.954Z,102.17
2023-01-17T10:30:24.584Z,106.73
2023-01-17T10:32:53.287Z,94.13
2023-01-17T10:35:25.205Z,92.17
2023-01-17T10:37:56.909Z,96.83
2023-01-17T10:40:34.250Z,92.73
2023-01-17T10:43:07.635Z,94.50
2023-01-17T10:45:43.734Z,95.27
2023-01-17T10:48:17.851Z,95.20
2023-01-17T10:50:58.457Z,93.33
2023-01-17T10:53:41.599Z,93.90
2023-01-17T10:56:16.801Z,90.93
2023-01-17T10:58:48.302Z,94.13
2023-01-17T11:01:20.315Z,95.70
2023-01-17T11:03:54.818Z,94.47
2023-01-17T11:06:24.413Z,87.33
2023-01-17T11:08:57.183Z,90.50
2023-01-17T11:11:31.735Z,96.43
2023-01-17T11:14:01.836Z,91.70
2023-01-17T11:16:32.414Z,91.67
2023-01-17T11:19:13.108Z,90.77
2023-01-17T11:21:50.305Z,90.53
2023-01-17T11:24:26.944Z,83.87
2023-01-17T11:26:57.121Z,83.97
2023-01-17T11:29:35.847Z,82.43
2023-01-17T11:32:28.806Z,78.80
2023-01-17T11:35:18.463Z,75.90
2023-01-17T11:37:51.728Z,73.40
2023-01-17T11:40:27.490Z,68.00
2023-01-17T11:43:06.329Z,63.57
2023-01-17T11:45:35.893Z,60.17
2023-01-17T11:48:16.108Z,56.20
2023-01-17T11:50:47.558Z,55.27
2023-01-17T11:53:24.232Z,52.20
2023-01-17T11:56:13.053Z,50.63
2023-01-17T11:58:45.050Z,48.33
2023-01-17T12:01:33.972Z,53.43
2023-01-17T12:04:24.085Z,49.27
2023-01-17T12:07:06.978Z,42.93
2023-01-17T12:09:43.617Z,45.77
2023-01-17T12:12:37.470Z,41.10
2023-01-17T12:15:22.193Z,40.77
2023-01-17T12:18:05.820Z,36.67
2023-01-17T12:20:42.295Z,33.60
2023-01-17T12:23:31.753Z,32.23
2023-01-17T12:26:19.444Z,29.20
2023-01-17T12:29:05.469Z,25.77
2023-01-17T12:31:39.860Z,25.50
2023-01-17T12:34:21.865Z,23.17
2023-01-17T12:36:53.872Z,25.27
2023-01-17T12:39:26.924Z,24.43
2023-01-17T12:42:02.348Z,21.97
2023-01-17T12:44:45.235Z,19.10
2023-01-17T12:47:16.967Z,19.03
2023-01-17T12:49:51.453Z,19.07
2023-01-17T12:52:27.473Z,19.63
2023-01-17T12:55:01.092Z,19.00
2023-01-17T12:57:36.218Z,18.20
2023-01-17T13:00:09.089Z,17.40
2023-01-17T13:02:42.554Z,16.90
2023-01-17T13:05:15.322Z,16.63
2023-01-17T13:07:50.378Z,17.07
2023-01-17T13:10:27.225Z,17.00
2023-01-17T13:12:58.417Z,16.97
2023-01-17T13:15:31.986Z,17.40
2023-01-17T13:18:10.525Z,16.37
2023-01-17T13:20:56.151Z,16.00
2023-01-17T13:23:30.253Z,15.90
2023-01-17T13:26:02.003Z,16.57
2023-01-17T13:28:43.700Z,16.60
2023-01-17T13:31:37.619Z,16.60
2023-01-17T13:34:42.523Z,18.27
2023-01-17T13:37:35.197Z,16.73
2023-01-17T13:40:22.213Z,17.20
2023-01-17T13:42:56.072Z,16.53
2023-01-17T13:45:28.305Z,16.60
2023-01-17T13:48:31.044Z,16.70
2023-01-17T13:51:02.278Z,17.00
2023-01-17T13:53:57.959Z,16.43
2023-01-17T13:56:34.728Z,16.47
2023-01-17T13:59:35.944Z,16.63
2023-01-17T14:02:04.076Z,16.50
2023-01-17T14:05:09.733Z,16.33
2023-01-17T14:07:45.367Z,16.30
2023-01-17T14:10:33.538Z,16.23
2023-01-17T14:13:04.220Z,16.50
2023-01-17T14:15:35.565Z,17.00
2023-01-17T14:18:06.120Z,16.60
2023-01-17T14:21:12.901Z,16.57
2023-01-17T14:23:59.957Z,17.20
2023-01-17T14:26:38.401Z,16.70
2023-01-17T14:29:44.595Z,16.80
2023-01-17T14:32:15.039Z,16.60
2023-01-17T14:34:45.840Z,16.53
2023-01-17T14:37:32.079Z,16.70
2023-01-17T14:40:03.033Z,16.97
2023-01-17T14:42:32.614Z,16.80
2023-01-17T14:45:04.781Z,17.37
2023-01-17T14:47:35.750Z,17.10
2023-01-17T14:50:22.816Z,17.20
2023-01-17T14:53:21.523Z,17.73
2023-01-17T14:56:03.364Z,17.13
2023-01-17T14:58:33.298Z,17.97
2023-01-17T15:01:04.227Z,18.43
2023-01-17T15:03:36.949Z,18.10
2023-01-17T15:06:13.379Z,18.10
2023-01-17T15:08:42.357Z,18.10
2023-01-17T15:11:20.266Z,18.40
2023-01-17T15:13:53.414Z,19.07
2023-01-17T15:16:25.989Z,19.07
2023-01-17T15:18:55.817Z,18.43
2023-01-17T15:21:26.451Z,19.37
2023-01-17T15:23:57.382Z,18.60
2023-01-17T15:26:29.802Z,18.87
2023-01-17T15:29:04.277Z,20.00
2023-01-17T15:31:42.154Z,21.13
2023-01-17T15:34:19.308Z,30.00
2023-01-17T15:36:50.368Z,21.40
2023-01-17T15:39:21.685Z,21.70
2023-01-17T15:41:56.042Z,21.20
2023-01-17T15:44:42.696Z,21.73
2023-01-17T15:47:31.967Z,23.00
2023-01-17T15:50:01.527Z,22.40
2023-01-17T15:52:30.880Z,22.30
2023-01-17T15:55:12.549Z,22.37
2023-01-17T15:57:47.849Z,23.07
2023-01-17T16:00:23.991Z,24.53
2023-01-17T16:02:55.577Z,25.33
2023-01-17T16:05:43.553Z,26.80
2023-01-17T16:08:38.641Z,27.57
2023-01-17T16:11:09.068Z,28.03
2023-01-17T16:13:42.273Z,30.93
2023-01-17T16:16:19.654Z,30.53
2023-01-17T16:18:49.462Z,32.30
2023-01-17T16:21:26.804Z,33.37
2023-01-17T16:23:56.452Z,34.60
2023-01-17T16:26:25.148Z,34.93
2023-01-17T16:28:54.771Z,39.97
2023-01-17T16:31:23.048Z,40.80
2023-01-17T16:33:52.527Z,40.70
2023-01-17T16:36:22.822Z,41.70
2023-01-17T16:38:53.183Z,40.60
2023-01-17T16:41:22.576Z,41.70
2023-01-17T16:44:03.322Z,42.43
2023-01-17T16:46:31.810Z,41.23
2023-01-17T16:49:01.122Z,39.33
2023-01-17T16:51:29.211Z,38.70
2023-01-17T16:53:58.184Z,38.80
2023-01-17T16:56:26.425Z,38.33
2023-01-17T16:58:54.799Z,38.53
2023-01-17T17:01:25.401Z,36.30
2023-01-17T17:03:53.707Z,36.80
2023-01-17T17:06:21.914Z,37.13
2023-01-17T17:08:50.035Z,38.10
2023-01-17T17:11:19.724Z,39.07
2023-01-17T17:13:49.827Z,40.73
2023-01-17T17:16:19.906Z,40.33
2023-01-17T17:18:57.103Z,39.40
2023-01-17T17:21:25.491Z,41.40
2023-01-17T17:23:58.671Z,38.93
2023-01-17T17:26:29.004Z,37.53
2023-01-17T17:28:57.423Z,37.37
2023-01-17T17:31:25.977Z,37.23
2023-01-17T17:33:59.361Z,38.83
2023-01-17T17:36:28.395Z,36.03
2023-01-17T17:38:57.252Z,36.20
2023-01-17T17:41:27.440Z,35.53
2023-01-17T17:43:55.954Z,37.10
2023-01-17T17:46:26.059Z,37.30
2023-01-17T17:48:57.441Z,37.80
2023-01-17T17:51:27.091Z,40.40
2023-01-17T17:53:56.826Z,42.23
2023-01-17T17:56:25.427Z,41.97
2023-01-17T17:58:53.719Z,40.80
2023-01-17T18:01:24.350Z,42.40
2023-01-17T18:03:53.105Z,41.73
2023-01-17T18:06:23.371Z,40.97
2023-01-17T18:08:52.574Z,38.90
2023-01-17T18:11:23.055Z,39.70
2023-01-17T18:13:54.267Z,40.23
2023-01-17T18:16:24.524Z,43.30
2023-01-17T18:18:54.776Z,39.83
2023-01-17T18:21:25.628Z,42.27
2023-01-17T18:23:56.682Z,41.47
2023-01-17T18:26:26.326Z,40.27
2023-01-17T18:28:55.631Z,38.90
2023-01-17T18:31:25.211Z,39.50
2023-01-17T18:33:54.169Z,38.30
2023-01-17T18:36:24.475Z,38.40
2023-01-17T18:38:53.234Z,37.47
2023-01-17T18:41:23.484Z,37.23
2023-01-17T18:43:52.019Z,39.60
2023-01-17T18:46:21.532Z,40.63
2023-01-17T18:48:49.796Z,39.87
2023-01-17T18:51:20.432Z,40.60
2023-01-17T18:53:50.012Z,39.60
2023-01-17T18:56:21.077Z,39.63
2023-01-17T18:58:50.719Z,39.20
2023-01-17T19:01:21.196Z,40.20
2023-01-17T19:03:51.029Z,38.90
2023-01-17T19:06:22.621Z,36.80
2023-01-17T19:08:53.609Z,37.10
2023-01-17T19:11:25.457Z,37.30
2023-01-17T19:13:54.493Z,37.50
2023-01-17T19:16:25.611Z,36.67
2023-01-17T19:18:54.707Z,30.30
2023-01-17T19:21:25.265Z,29.67
2023-01-17T19:23:56.156Z,28.33
2023-01-17T19:26:26.621Z,28.60
2023-01-17T19:28:56.970Z,31.60
2023-01-17T19:31:27.612Z,30.50
2023-01-17T19:33:58.071Z,29.13
2023-01-17T19:36:28.825Z,30.33
2023-01-17T19:39:04.796Z,30.03
2023-01-17T19:41:34.965Z,28.27
2023-01-17T19:44:05.942Z,30.00
2023-01-17T19:46:35.193Z,27.67
2023-01-17T19:49:05.144Z,28.37
2023-01-17T19:51:33.663Z,27.40
2023-01-17T19:54:04.288Z,28.97
2023-01-17T19:56:33.053Z,28.93
2023-01-17T19:59:02.291Z,28.20
2023-01-17T20:01:32.528Z,30.43
2023-01-17T20:04:01.822Z,30.00
2023-01-17T20:06:32.125Z,27.80
2023-01-17T20:09:00.818Z,28.57
2023-01-17T20:11:30.637Z,28.90
2023-01-17T20:14:00.181Z,27.70
2023-01-17T20:16:30.832Z,27.97
2023-01-17T20:18:59.386Z,27.97
2023-01-17T20:21:29.297Z,28.77
2023-01-17T20:23:59.344Z,28.10
2023-01-17T20:26:35.012Z,29.60
2023-01-17T20:29:06.876Z,29.20
2023-01-17T20:31:38.121Z,29.47
2023-01-17T20:34:07.246Z,29.03
2023-01-17T20:36:35.487Z,30.80
2023-01-17T20:39:04.585Z,29.23
2023-01-17T20:41:36.455Z,28.63
2023-01-17T20:44:06.212Z,27.60
2023-01-17T20:46:40.435Z,28.10
2023-01-17T20:49:13.361Z,27.53
2023-01-17T20:51:44.046Z,26.73
2023-01-17T20:54:14.888Z,26.70
2023-01-17T20:56:47.170Z,26.20
2023-01-17T20:59:17.293Z,26.17
2023-01-17T21:01:45.872Z,26.40
2023-01-17T21:04:14.785Z,27.50
2023-01-17T21:06:44.326Z,28.37
2023-01-17T21:09:14.645Z,28.50
2023-01-17T21:11:44.215Z,34.67
2023-01-17T21:14:12.349Z,36.67
2023-01-17T21:16:40.956Z,37.40
2023-01-17T21:19:11.962Z,37.70
2023-01-17T21:21:40.252Z,37.97
2023-01-17T21:24:08.718Z,38.17
2023-01-17T21:26:38.847Z,40.47
2023-01-17T21:29:09.634Z,41.70
2023-01-17T21:31:40.248Z,39.67
2023-01-17T21:34:10.553Z,39.47
2023-01-17T21:36:40.619Z,38.43
2023-01-17T21:39:12.145Z,41.80
2023-01-17T21:41:41.496Z,42.60
2023-01-17T21:44:14.151Z,41.87
2023-01-17T21:46:42.895Z,43.17
2023-01-17T21:49:12.108Z,42.47
2023-01-17T21:51:58.627Z,43.10
2023-01-17T21:54:46.072Z,39.77
2023-01-17T21:57:33.637Z,41.43
2023-01-17T22:00:03.184Z,39.57
2023-01-17T22:02:31.276Z,39.27
2023-01-17T22:04:59.480Z,40.97
2023-01-17T22:07:29.031Z,42.03
2023-01-17T22:09:57.807Z,42.00
2023-01-17T22:12:26.049Z,42.23
2023-01-17T22:14:54.432Z,42.27
2023-01-17T22:17:24.180Z,42.60
2023-01-17T22:19:52.344Z,38.70
2023-01-17T22:22:20.578Z,40.40
2023-01-17T22:24:48.630Z,39.13
2023-01-17T22:27:16.803Z,41.17
2023-01-17T22:29:44.917Z,41.73
2023-01-17T22:32:13.029Z,40.83
2023-01-17T22:34:42.518Z,41.53
2023-01-17T22:37:11.253Z,42.57
2023-01-17T22:39:39.907Z,41.20
2023-01-17T22:42:08.380Z,42.50
2023-01-17T22:44:36.551Z,44.63
2023-01-17T22:47:04.719Z,42.87
2023-01-17T22:49:32.919Z,44.23
2023-01-17T22:52:02.470Z,45.40
2023-01-17T22:54:30.627Z,45.53
2023-01-17T22:56:59.855Z,43.97
2023-01-17T22:59:27.964Z,45.70
2023-01-17T23:01:56.015Z,46.90
2023-01-17T23:04:24.153Z,45.20
2023-01-17T23:06:52.207Z,44.20
2023-01-17T23:09:21.704Z,46.07
2023-01-17T23:11:52.851Z,47.53
2023-01-17T23:14:23.047Z,50.70
2023-01-17T23:17:10.883Z,49.47
2023-01-17T23:19:41.068Z,49.00
2023-01-17T23:22:15.756Z,53.97
2023-01-17T23:24:47.284Z,51.13
2023-01-17T23:27:35.372Z,49.57
2023-01-17T23:30:04.614Z,52.67
2023-01-17T23:32:32.953Z,53.23
2023-01-17T23:35:00.904Z,50.83
2023-01-17T23:37:48.219Z,51.30
2023-01-17T23:40:18.803Z,50.13
2023-01-17T23:43:04.206Z,49.33
2023-01-17T23:45:35.371Z,51.30
2023-01-17T23:48:05.494Z,50.03
2023-01-17T23:50:34.320Z,49.10
2023-01-17T23:53:06.902Z,49.17
2023-01-17T23:55:38.450Z,51.23
2023-01-17T23:58:08.129Z,50.00
